Time;durP1;ratioP1;P1;durP2;ratioP2;P2;SDS_P1;SDS_P2;PMS_P1;PMS_P2;Temp;Humidity;BMP_temperature;BMP_pressure;BME280_temperature;BME280_humidity;BME280_pressure;Samples;Min_cycle;Max_cycle;Signal;HPM_P1;HPM_P2
2022/05/09 00:01:26;;;;;;;2.55;2.13;;;;;;;;;;7328831;19;154102;-18
2022/05/09 00:03:58;;;;;;;2.00;1.80;;;;;;;;;;7328123;19;153443;-18
2022/05/09 00:06:29;;;;;;;1.60;1.50;;;;;;;;;;7327031;19;161892;-18
2022/05/09 00:09:00;;;;;;;2.30;1.58;;;;;;;;;;7327153;19;162438;-18
2022/05/09 00:11:31;;;;;;;1.83;1.50;;;;;;;;;;7326224;19;154046;-18
2022/05/09 00:14:03;;;;;;;1.60;1.50;;;;;;;;;;7328304;19;153508;-19
2022/05/09 00:16:37;;;;;;;1.65;1.55;;;;;;;;;;7327596;19;162183;-18
2022/05/09 00:19:13;;;;;;;2.03;1.83;;;;;;;;;;7327944;19;162561;-18
2022/05/09 00:21:47;;;;;;;2.25;1.60;;;;;;;;;;7327945;19;154059;-18
2022/05/09 00:24:19;;;;;;;2.40;1.80;;;;;;;;;;7326982;19;153517;-18
2022/05/09 00:26:55;;;;;;;2.92;1.75;;;;;;;;;;7329993;19;161972;-18
2022/05/09 00:29:27;;;;;;;1.95;1.60;;;;;;;;;;7327220;19;162611;-18
2022/05/09 00:32:01;;;;;;;2.77;1.90;;;;;;;;;;7327580;19;154242;-18
2022/05/09 00:34:36;;;;;;;1.90;1.52;;;;;;;;;;7327569;19;153549;-18
2022/05/09 00:37:11;;;;;;;1.85;1.48;;;;;;;;;;7327517;19;161857;-18
2022/05/09 00:39:42;;;;;;;2.13;1.67;;;;;;;;;;7328572;19;162370;-18
2022/05/09 00:42:15;;;;;;;3.75;1.83;;;;;;;;;;7328788;19;154176;-18
2022/05/09 00:44:47;;;;;;;1.85;1.67;;;;;;;;;;7326266;19;154852;-18
2022/05/09 00:47:21;;;;;;;1.50;1.40;;;;;;;;;;7327096;19;161924;-18
2022/05/09 00:49:57;;;;;;;1.90;1.58;;;;;;;;;;7326956;19;162379;-18
2022/05/09 00:52:36;;;;;;;1.98;1.70;;;;;;;;;;7327175;19;154092;-18
2022/05/09 00:55:13;;;;;;;2.10;1.80;;;;;;;;;;7327563;19;153588;-18
2022/05/09 00:57:52;;;;;;;1.35;1.23;;;;;;;;;;7327767;19;161941;-18
2022/05/09 01:00:26;;;;;;;1.90;1.80;;;;;;;;;;7326405;19;162424;-18
2022/05/09 01:03:03;;;;;;;2.85;1.80;;;;;;;;;;7326344;19;154074;-18
2022/05/09 01:05:34;;;;;;;1.92;1.73;;;;;;;;;;7325310;19;153560;-19
2022/05/09 01:08:06;;;;;;;2.08;1.88;;;;;;;;;;7324948;19;161643;-18
2022/05/09 01:10:43;;;;;;;1.80;1.70;;;;;;;;;;7326300;19;162395;-18
2022/05/09 01:13:16;;;;;;;1.63;1.52;;;;;;;;;;7326655;19;154132;-18
2022/05/09 01:15:50;;;;;;;1.70;1.60;;;;;;;;;;7327781;19;153482;-18
2022/05/09 01:18:24;;;;;;;2.30;1.60;;;;;;;;;;7330202;19;161929;-18
2022/05/09 01:20:55;;;;;;;2.55;1.80;;;;;;;;;;7323400;19;162658;-19
2022/05/09 01:23:35;;;;;;;3.00;1.67;;;;;;;;;;7333643;19;154227;-19
2022/05/09 01:26:06;;;;;;;2.08;1.10;;;;;;;;;;7332709;19;153544;-19
2022/05/09 01:28:38;;;;;;;2.95;2.00;;;;;;;;;;7333313;19;162408;-19
2022/05/09 01:31:14;;;;;;;6.63;1.60;;;;;;;;;;7332023;19;163238;-18
2022/05/09 01:33:47;;;;;;;2.00;1.90;;;;;;;;;;7334319;19;154298;-19
2022/05/09 01:36:20;;;;;;;2.65;1.42;;;;;;;;;;7334330;19;153675;-20
2022/05/09 01:38:59;;;;;;;2.10;1.83;;;;;;;;;;7331824;19;161843;-19
2022/05/09 01:41:31;;;;;;;1.63;1.52;;;;;;;;;;7333655;19;162394;-19
2022/05/09 01:44:04;;;;;;;4.03;1.73;;;;;;;;;;7334213;19;154137;-19
2022/05/09 01:46:35;;;;;;;1.70;1.60;;;;;;;;;;7331777;19;153887;-18
2022/05/09 01:51:50;;;;;;;2.00;1.80;;;;;;;;;;7333199;19;162319;-18
2022/05/09 01:54:24;;;;;;;2.08;1.48;;;;;;;;;;7332297;19;154280;-18
2022/05/09 01:56:55;;;;;;;1.70;1.60;;;;;;;;;;7333650;19;153365;-18
2022/05/09 01:59:26;;;;;;;1.67;1.50;;;;;;;;;;7333282;19;161757;-18
2022/05/09 02:02:03;;;;;;;1.63;1.52;;;;;;;;;;7333074;19;162538;-18
2022/05/09 02:04:38;;;;;;;1.92;1.38;;;;;;;;;;7332291;19;154304;-18
2022/05/09 02:07:10;;;;;;;1.80;1.70;;;;;;;;;;7331005;19;153567;-19
2022/05/09 02:09:45;;;;;;;1.70;1.55;;;;;;;;;;7333205;19;161960;-19
2022/05/09 02:12:18;;;;;;;1.83;1.48;;;;;;;;;;7332725;19;162557;-19
2022/05/09 02:14:49;;;;;;;;;;;;;;;;;;7333634;19;154248;-18
2022/05/09 02:17:20;;;;;;;1.83;1.50;;;;;;;;;;7333336;19;153564;-18
2022/05/09 02:19:52;;;;;;;1.55;1.35;;;;;;;;;;7331381;19;162016;-18
2022/05/09 02:22:23;;;;;;;1.70;1.60;;;;;;;;;;7333445;19;162510;-20
2022/05/09 02:24:58;;;;;;;1.92;1.70;;;;;;;;;;7332917;19;154041;-19
2022/05/09 02:27:30;;;;;;;1.50;1.40;;;;;;;;;;7332972;19;153476;-19
2022/05/09 02:30:03;;;;;;;1.60;1.33;;;;;;;;;;7332567;19;161904;-19
2022/05/09 02:32:38;;;;;;;1.60;1.50;;;;;;;;;;7330406;19;162384;-19
2022/05/09 02:35:10;;;;;;;1.83;1.40;;;;;;;;;;7336211;19;154145;-17
2022/05/09 02:37:41;;;;;;;1.45;1.35;;;;;;;;;;7331499;19;153494;-18
2022/05/09 02:40:17;;;;;;;1.92;1.75;;;;;;;;;;7330706;19;162061;-18
2022/05/09 02:42:48;;;;;;;1.50;1.40;;;;;;;;;;7331907;19;162484;-18
2022/05/09 02:45:20;;;;;;;1.75;1.27;;;;;;;;;;7331916;19;154344;-18
2022/05/09 02:47:51;;;;;;;2.25;1.67;;;;;;;;;;7332123;19;153316;-18
2022/05/09 02:50:24;;;;;;;1.67;1.55;;;;;;;;;;7331786;19;162216;-18
2022/05/09 02:52:57;;;;;;;1.60;1.50;;;;;;;;;;7331687;19;162207;-19
2022/05/09 02:55:31;;;;;;;1.88;1.75;;;;;;;;;;7332006;19;154225;-19
2022/05/09 02:58:03;;;;;;;1.70;1.60;;;;;;;;;;7332087;19;153659;-18
2022/05/09 03:00:35;;;;;;;1.45;1.35;;;;;;;;;;7331470;19;161804;-19
2022/05/09 03:05:52;;;;;;;1.58;1.48;;;;;;;;;;7330025;19;154410;-18
2022/05/09 03:08:24;;;;;;;2.55;1.50;;;;;;;;;;7331664;19;153641;-18
2022/05/09 03:10:58;;;;;;;1.80;1.23;;;;;;;;;;7331257;19;162395;-18
2022/05/09 03:13:30;;;;;;;1.63;1.52;;;;;;;;;;7330994;19;162667;-17
2022/05/09 03:16:02;;;;;;;1.60;1.40;;;;;;;;;;7331370;19;154184;-17
2022/05/09 03:18:36;;;;;;;1.83;1.35;;;;;;;;;;7331232;19;153572;-17
2022/05/09 03:21:09;;;;;;;1.60;1.50;;;;;;;;;;7330913;19;161806;-18
2022/05/09 03:23:40;;;;;;;1.80;1.48;;;;;;;;;;7331025;19;162513;-18
2022/05/09 03:26:14;;;;;;;2.72;1.50;;;;;;;;;;7330353;19;154095;-17
2022/05/09 03:28:47;;;;;;;1.48;1.38;;;;;;;;;;7331140;19;153447;-17
2022/05/09 03:31:19;;;;;;;2.13;1.50;;;;;;;;;;7330347;19;162183;-18
2022/05/09 03:33:51;;;;;;;1.40;1.30;;;;;;;;;;7330376;19;162507;-19
2022/05/09 03:36:22;;;;;;;2.28;1.48;;;;;;;;;;7330788;19;154238;-17
2022/05/09 03:38:54;;;;;;;2.22;1.40;;;;;;;;;;7327143;19;153594;-18
2022/05/09 03:41:27;;;;;;;1.30;1.20;;;;;;;;;;7330365;19;161798;-18
2022/05/09 03:43:59;;;;;;;1.45;1.33;;;;;;;;;;7329905;19;162497;-17
2022/05/09 03:46:30;;;;;;;1.38;1.20;;;;;;;;;;7329784;19;154213;-18
2022/05/09 03:49:04;;;;;;;1.55;1.45;;;;;;;;;;7330388;19;153578;-18
2022/05/09 03:51:35;;;;;;;1.75;1.65;;;;;;;;;;7328762;19;161878;-18
2022/05/09 03:54:06;;;;;;;1.42;1.25;;;;;;;;;;7329883;19;162492;-18
2022/05/09 03:56:41;;;;;;;1.60;1.50;;;;;;;;;;7330135;19;154119;-18
2022/05/09 03:59:12;;;;;;;1.50;1.40;;;;;;;;;;7330215;19;153531;-19
2022/05/09 04:01:43;;;;;;;1.60;1.50;;;;;;;;;;7328817;19;161760;-18
2022/05/09 04:04:15;;;;;;;1.50;1.40;;;;;;;;;;7329588;19;162428;-18
2022/05/09 04:06:46;;;;;;;1.50;1.40;;;;;;;;;;7329103;19;154091;-18
2022/05/09 04:09:17;;;;;;;2.20;1.50;;;;;;;;;;7329664;19;153418;-18
2022/05/09 04:11:51;;;;;;;1.60;1.50;;;;;;;;;;7329419;19;161793;-18
2022/05/09 04:16:49;;;;;;;1.30;1.20;;;;;;;;;;7329505;19;162351;-19
2022/05/09 04:17:14;;;;;;;2.80;1.70;;;;;;;;;;7329739;19;154256;-18
2022/05/09 04:19:45;;;;;;;1.98;1.77;;;;;;;;;;7332018;19;153776;-18
2022/05/09 04:22:16;;;;;;;2.30;1.60;;;;;;;;;;7329025;19;161912;-18
2022/05/09 04:24:48;;;;;;;2.17;1.83;;;;;;;;;;7327753;19;162539;-18
2022/05/09 04:27:21;;;;;;;1.80;1.70;;;;;;;;;;7328159;19;154164;-18
2022/05/09 04:29:53;;;;;;;1.67;1.58;;;;;;;;;;7329123;19;153461;-18
2022/05/09 04:32:24;;;;;;;1.88;1.70;;;;;;;;;;7328767;19;161778;-17
2022/05/09 04:34:56;;;;;;;1.92;1.77;;;;;;;;;;7328497;19;163067;-18
2022/05/09 04:37:28;;;;;;;1.63;1.52;;;;;;;;;;7327908;19;154008;-18
2022/05/09 04:39:59;;;;;;;2.28;1.88;;;;;;;;;;7328756;19;153557;-18
2022/05/09 04:42:33;;;;;;;2.28;2.08;;;;;;;;;;7327706;19;161784;-19
2022/05/09 04:45:05;;;;;;;1.80;1.70;;;;;;;;;;7332317;19;162339;-19
2022/05/09 04:47:40;;;;;;;2.20;1.70;;;;;;;;;;7327424;19;154245;-19
2022/05/09 04:50:14;;;;;;;1.93;1.77;;;;;;;;;;7328648;19;153680;-19
2022/05/09 04:52:46;;;;;;;1.90;1.77;;;;;;;;;;7328002;19;162109;-18
2022/05/09 04:55:18;;;;;;;1.83;1.73;;;;;;;;;;7326811;19;162606;-18
2022/05/09 04:57:55;;;;;;;1.77;1.42;;;;;;;;;;7335195;19;154171;-18
2022/05/09 05:00:28;;;;;;;1.60;1.50;;;;;;;;;;7334034;19;153612;-18
2022/05/09 05:03:00;;;;;;;1.90;1.65;;;;;;;;;;7333525;19;162057;-18
2022/05/09 05:05:31;;;;;;;1.90;1.70;;;;;;;;;;7334415;19;162575;-23
2022/05/09 05:08:03;;;;;;;2.60;1.88;;;;;;;;;;7333931;19;154036;-18
2022/05/09 05:10:34;;;;;;;1.77;1.65;;;;;;;;;;7334894;19;153511;-18
2022/05/09 05:13:08;;;;;;;2.40;1.88;;;;;;;;;;7334579;19;161831;-18
2022/05/09 05:15:39;;;;;;;2.25;2.05;;;;;;;;;;7334548;19;162488;-18
2022/05/09 05:18:11;;;;;;;2.15;1.65;;;;;;;;;;7334675;19;154131;-18
2022/05/09 05:20:42;;;;;;;1.65;1.55;;;;;;;;;;7334694;19;153650;-18
2022/05/09 05:23:13;;;;;;;2.33;1.88;;;;;;;;;;7334186;19;162002;-19
2022/05/09 05:25:45;;;;;;;1.88;1.67;;;;;;;;;;7334349;19;162522;-18
2022/05/09 05:28:20;;;;;;;1.90;1.70;;;;;;;;;;7333147;19;154439;-18
2022/05/09 05:30:51;;;;;;;1.77;1.67;;;;;;;;;;7334344;19;153495;-18
2022/05/09 05:33:26;;;;;;;5.32;3.35;;;;;;;;;;7337467;19;162166;-18
2022/05/09 05:35:57;;;;;;;6.22;4.63;;;;;;;;;;7333636;19;162373;-17
2022/05/09 05:38:29;;;;;;;13.38;6.10;;;;;;;;;;7332327;19;154282;-19
2022/05/09 05:41:00;;;;;;;11.20;6.55;;;;;;;;;;7333881;19;153466;-18
2022/05/09 05:43:34;;;;;;;11.48;6.38;;;;;;;;;;7333547;19;162278;-19
2022/05/09 05:46:05;;;;;;;9.18;6.32;;;;;;;;;;7332547;19;162634;-19
2022/05/09 05:48:36;;;;;;;9.98;5.63;;;;;;;;;;7332448;19;154120;-19
2022/05/09 05:51:08;;;;;;;14.65;9.20;;;;;;;;;;7333527;19;154121;-19
2022/05/09 05:53:39;;;;;;;50.97;23.48;;;;;;;;;;7333194;19;162127;-19
2022/05/09 05:56:11;;;;;;;97.60;45.28;;;;;;;;;;7331332;19;162787;-19
2022/05/09 05:58:44;;;;;;;146.60;70.45;;;;;;;;;;7333486;19;153986;-20
2022/05/09 06:01:16;;;;;;;157.90;76.00;;;;;;;;;;7333203;19;153695;-19
2022/05/09 06:03:48;;;;;;;157.77;75.28;;;;;;;;;;7332896;19;161830;-19
2022/05/09 06:06:19;;;;;;;155.25;72.30;;;;;;;;;;7332823;19;162407;-19
2022/05/09 06:08:50;;;;;;;147.43;72.55;;;;;;;;;;7329062;19;154343;-19
2022/05/09 06:11:21;;;;;;;131.27;64.90;;;;;;;;;;7331812;19;153681;-19
2022/05/09 06:13:55;;;;;;;123.13;61.85;;;;;;;;;;7332576;19;161606;-19
2022/05/09 06:16:27;;;;;;;124.50;58.92;;;;;;;;;;7331217;19;162426;-19
2022/05/09 06:18:59;;;;;;;109.32;52.45;;;;;;;;;;7332783;19;154078;-19
2022/05/09 06:21:33;;;;;;;106.47;53.77;;;;;;;;;;7332809;19;153703;-19
2022/05/09 06:24:05;;;;;;;95.05;47.67;;;;;;;;;;7332371;19;161834;-18
2022/05/09 06:26:37;;;;;;;92.87;45.90;;;;;;;;;;7331166;19;162470;-19
2022/05/09 06:29:11;;;;;;;93.13;41.63;;;;;;;;;;7335244;19;154180;-19
2022/05/09 06:31:42;;;;;;;88.28;42.95;;;;;;;;;;7332444;19;153633;-19
2022/05/09 06:34:14;;;;;;;80.32;38.95;;;;;;;;;;7331963;19;162054;-20
2022/05/09 06:36:46;;;;;;;77.93;39.53;;;;;;;;;;7331711;19;162393;-18
2022/05/09 06:39:17;;;;;;;79.20;38.03;;;;;;;;;;7329341;19;154100;-17
2022/05/09 06:41:49;;;;;;;80.25;38.45;;;;;;;;;;7332504;19;153653;-17
2022/05/09 06:44:23;;;;;;;70.93;34.93;;;;;;;;;;7331633;19;161977;-20
2022/05/09 06:46:54;;;;;;;69.38;34.90;;;;;;;;;;7331732;19;162424;-17
2022/05/09 06:49:28;;;;;;;72.78;34.45;;;;;;;;;;7330148;19;154069;-17
2022/05/09 06:51:59;;;;;;;66.47;32.45;;;;;;;;;;7331741;19;153571;-19
2022/05/09 06:54:31;;;;;;;64.78;31.88;;;;;;;;;;7331277;19;161789;-18
2022/05/09 06:57:02;;;;;;;56.70;29.88;;;;;;;;;;7331252;19;162731;-19
2022/05/09 06:59:37;;;;;;;59.50;30.58;;;;;;;;;;7331317;19;154244;-18
2022/05/09 07:02:08;;;;;;;64.20;30.15;;;;;;;;;;7331027;19;153864;-18
2022/05/09 07:04:41;;;;;;;61.00;30.42;;;;;;;;;;7330784;19;161843;-19
2022/05/09 07:07:12;;;;;;;59.28;31.13;;;;;;;;;;7331110;19;162507;-18
2022/05/09 07:09:44;;;;;;;59.42;31.83;;;;;;;;;;7329655;19;154121;-18
2022/05/09 07:12:15;;;;;;;50.53;26.40;;;;;;;;;;7331077;19;153902;-19
2022/05/09 07:14:50;;;;;;;;;;;;;;;;;;7331302;19;161922;-18
2022/05/09 07:17:21;;;;;;;44.58;20.67;;;;;;;;;;7331020;19;162776;-19
2022/05/09 07:19:53;;;;;;;44.47;21.65;;;;;;;;;;7330303;19;154158;-26
2022/05/09 07:22:24;;;;;;;40.13;22.15;;;;;;;;;;7330674;19;153913;-18
2022/05/09 07:24:55;;;;;;;44.47;22.25;;;;;;;;;;7330185;19;162298;-18
2022/05/09 07:27:27;;;;;;;42.08;22.25;;;;;;;;;;7330311;19;162414;-18
2022/05/09 07:30:01;;;;;;;40.47;22.85;;;;;;;;;;7328950;19;154023;-18
2022/05/09 07:32:33;;;;;;;48.83;24.25;;;;;;;;;;7330102;19;153626;-18
2022/05/09 07:35:04;;;;;;;46.38;23.33;;;;;;;;;;7330807;19;161990;-18
2022/05/09 07:37:36;;;;;;;46.05;23.73;;;;;;;;;;7331636;19;162525;-18
2022/05/09 07:40:10;;;;;;;48.13;25.90;;;;;;;;;;7333713;19;154351;-18
2022/05/09 07:42:44;;;;;;;51.42;24.02;;;;;;;;;;7330100;19;153663;-18
2022/05/09 07:45:21;;;;;;;53.38;24.90;;;;;;;;;;7329979;19;161752;-18
2022/05/09 07:47:53;;;;;;;43.22;23.20;;;;;;;;;;7329774;19;162446;-19
2022/05/09 07:50:26;;;;;;;50.50;25.23;;;;;;;;;;7328563;19;154061;-18
2022/05/09 07:52:57;;;;;;;44.22;24.92;;;;;;;;;;7330614;19;153586;-18
2022/05/09 07:55:29;;;;;;;43.33;22.98;;;;;;;;;;7330518;19;161916;-18
2022/05/09 07:58:01;;;;;;;44.70;23.88;;;;;;;;;;7330393;19;162760;-18
2022/05/09 08:00:35;;;;;;;42.80;22.05;;;;;;;;;;7330414;19;154389;-18
2022/05/09 08:03:09;;;;;;;43.38;22.90;;;;;;;;;;7330260;19;153759;-18
2022/05/09 08:05:43;;;;;;;43.28;23.85;;;;;;;;;;7330139;19;162152;-18
2022/05/09 08:08:15;;;;;;;43.15;22.30;;;;;;;;;;7328601;19;162440;-18
2022/05/09 08:10:47;;;;;;;41.28;22.52;;;;;;;;;;7326730;19;154087;-18
2022/05/09 08:13:21;;;;;;;40.40;21.75;;;;;;;;;;7330182;19;154844;-18
2022/05/09 08:15:56;;;;;;;41.17;20.52;;;;;;;;;;7329522;19;161793;-18
2022/05/09 08:18:28;;;;;;;42.70;20.40;;;;;;;;;;7329617;19;162583;-19
2022/05/09 08:21:00;;;;;;;41.42;21.65;;;;;;;;;;7329858;19;154083;-18
2022/05/09 08:23:31;;;;;;;40.70;20.63;;;;;;;;;;7330578;19;153837;-18
2022/05/09 08:26:05;;;;;;;38.88;20.73;;;;;;;;;;7329370;19;161877;-19
2022/05/09 08:28:36;;;;;;;35.75;19.42;;;;;;;;;;7329208;19;162605;-18
2022/05/09 08:31:11;;;;;;;35.22;19.05;;;;;;;;;;7325203;19;154110;-18
2022/05/09 08:33:42;;;;;;;37.53;18.27;;;;;;;;;;7329103;19;153745;-19
2022/05/09 08:36:45;;;;;;;38.33;19.15;;;;;;;;;;7330484;19;162198;-18
2022/05/09 08:39:05;;;;;;;41.78;20.20;;;;;;;;;;7325511;19;163074;-19
2022/05/09 08:41:47;;;;;;;36.88;18.67;;;;;;;;;;7328726;19;154049;-18
2022/05/09 08:44:24;;;;;;;34.15;18.88;;;;;;;;;;7328134;19;153715;-19
2022/05/09 08:47:17;;;;;;;35.03;18.95;;;;;;;;;;7328011;19;162200;-19
2022/05/09 08:49:58;;;;;;;34.40;17.83;;;;;;;;;;7327404;19;162585;-18
2022/05/09 08:52:39;;;;;;;31.02;16.85;;;;;;;;;;7328213;19;154121;-18
2022/05/09 08:55:11;;;;;;;38.30;18.70;;;;;;;;;;7328073;19;153613;-18
2022/05/09 08:57:46;;;;;;;36.90;18.95;;;;;;;;;;7327811;19;161823;-18
2022/05/09 09:00:21;;;;;;;32.90;18.27;;;;;;;;;;7326488;19;162848;-19
2022/05/09 09:03:01;;;;;;;34.58;18.02;;;;;;;;;;7327775;19;154614;-18
2022/05/09 09:05:38;;;;;;;29.77;17.00;;;;;;;;;;7327999;19;153688;-18
2022/05/09 09:08:21;;;;;;;31.17;17.67;;;;;;;;;;7327525;19;161759;-19
2022/05/09 09:11:01;;;;;;;31.55;16.75;;;;;;;;;;7326086;19;162367;-19
2022/05/09 09:13:47;;;;;;;33.70;16.98;;;;;;;;;;7327744;19;154088;-18
2022/05/09 09:16:54;;;;;;;33.25;17.50;;;;;;;;;;7327621;19;153625;-18
2022/05/09 09:19:49;;;;;;;30.52;16.00;;;;;;;;;;7325764;19;161377;-18
2022/05/09 09:22:37;;;;;;;27.10;12.95;;;;;;;;;;7326922;19;162366;-18
2022/05/09 09:25:18;;;;;;;33.60;16.13;;;;;;;;;;7327369;19;154342;-18
2022/05/09 09:27:53;;;;;;;24.10;12.15;;;;;;;;;;7330536;19;153655;-18
2022/05/09 09:30:27;;;;;;;35.75;18.20;;;;;;;;;;7326292;19;161863;-19
2022/05/09 09:33:00;;;;;;;29.45;16.05;;;;;;;;;;7326879;19;162415;-18
2022/05/09 09:35:44;;;;;;;28.98;14.88;;;;;;;;;;7327082;19;154340;-19
2022/05/09 09:38:21;;;;;;;28.33;14.93;;;;;;;;;;7324957;19;153543;-19
2022/05/09 09:40:53;;;;;;;26.40;13.77;;;;;;;;;;7326391;19;162131;-18
2022/05/09 09:43:24;;;;;;;28.67;14.57;;;;;;;;;;7332282;19;162373;-18
2022/05/09 09:46:07;;;;;;;28.75;14.85;;;;;;;;;;7333942;19;154255;-19
2022/05/09 09:48:39;;;;;;;27.10;15.13;;;;;;;;;;7333481;19;153619;-18
2022/05/09 09:51:18;;;;;;;32.80;15.80;;;;;;;;;;7332247;19;162060;-19
2022/05/09 09:54:03;;;;;;;23.42;12.75;;;;;;;;;;7333905;19;162657;-29
2022/05/09 09:56:35;;;;;;;26.70;14.20;;;;;;;;;;7327049;19;153776;-18
2022/05/09 09:59:21;;;;;;;27.83;15.65;;;;;;;;;;7330765;19;153598;-19
2022/05/09 10:02:10;;;;;;;27.90;14.80;;;;;;;;;;7332179;19;161902;-19
2022/05/09 10:04:41;;;;;;;28.60;14.82;;;;;;;;;;7333904;19;162330;-19
2022/05/09 10:07:17;;;;;;;28.13;14.25;;;;;;;;;;7332067;19;154156;-19
2022/05/09 10:10:07;;;;;;;27.92;14.73;;;;;;;;;;7331754;19;153621;-18
2022/05/09 10:12:39;;;;;;;25.13;14.45;;;;;;;;;;7333065;19;162007;-19
2022/05/09 10:15:30;;;;;;;22.20;14.25;;;;;;;;;;7330386;19;162555;-19
2022/05/09 10:18:01;;;;;;;26.30;15.07;;;;;;;;;;7331476;19;154137;-19
2022/05/09 10:20:40;;;;;;;25.30;14.05;;;;;;;;;;7331286;19;153640;-20
2022/05/09 10:26:09;;;;;;;26.05;14.43;;;;;;;;;;7330697;19;162485;-19
2022/05/09 10:28:48;;;;;;;26.83;13.50;;;;;;;;;;7333910;19;154016;-19
2022/05/09 10:31:25;;;;;;;24.02;13.43;;;;;;;;;;7329154;19;153518;-19
2022/05/09 10:34:04;;;;;;;25.33;13.88;;;;;;;;;;7336229;19;161826;-19
2022/05/09 10:36:41;;;;;;;24.50;13.75;;;;;;;;;;7331937;19;162420;-18
2022/05/09 10:39:22;;;;;;;24.38;13.40;;;;;;;;;;7330328;19;154519;-18
2022/05/09 10:41:59;;;;;;;28.05;14.35;;;;;;;;;;7332143;19;153879;-18
2022/05/09 10:44:40;;;;;;;22.15;12.45;;;;;;;;;;7331727;19;161714;-18
2022/05/09 10:47:22;;;;;;;23.58;13.02;;;;;;;;;;7331749;19;162653;-19
2022/05/09 10:50:02;;;;;;;19.63;12.95;;;;;;;;;;7331008;19;155112;-18
2022/05/09 10:52:45;;;;;;;26.27;12.85;;;;;;;;;;7330218;19;153660;-19
2022/05/09 10:55:26;;;;;;;23.58;12.93;;;;;;;;;;7329738;19;161846;-19
2022/05/09 10:58:06;;;;;;;22.55;12.07;;;;;;;;;;7331565;19;162672;-18
2022/05/09 11:00:45;;;;;;;19.35;11.60;;;;;;;;;;7331069;19;154175;-19
2022/05/09 11:03:34;;;;;;;24.45;13.57;;;;;;;;;;7333955;19;154019;-18
2022/05/09 11:06:24;;;;;;;21.80;12.15;;;;;;;;;;7331154;19;161668;-18
2022/05/09 11:09:21;;;;;;;20.00;12.07;;;;;;;;;;7329915;19;163109;-18
2022/05/09 11:12:08;;;;;;;20.38;12.10;;;;;;;;;;7329983;19;154024;-18
2022/05/09 11:14:52;;;;;;;24.08;12.48;;;;;;;;;;7331185;19;153715;-19
2022/05/09 11:17:36;;;;;;;19.88;12.30;;;;;;;;;;7330854;19;161820;-18
2022/05/09 11:20:16;;;;;;;23.33;11.90;;;;;;;;;;7330268;19;162597;-18
2022/05/09 11:22:57;;;;;;;21.15;12.65;;;;;;;;;;7330926;19;153983;-17
2022/05/09 11:25:36;;;;;;;21.30;11.77;;;;;;;;;;7331014;19;153693;-18
2022/05/09 11:28:27;;;;;;;19.95;10.60;;;;;;;;;;7330262;19;161821;-18
2022/05/09 11:31:08;;;;;;;19.35;11.77;;;;;;;;;;7328769;19;162718;-18
2022/05/09 11:33:58;;;;;;;20.35;13.07;;;;;;;;;;7326591;19;154090;-18
2022/05/09 11:36:47;;;;;;;22.08;10.63;;;;;;;;;;7330473;19;153837;-18
2022/05/09 11:39:30;;;;;;;17.50;10.75;;;;;;;;;;7327204;19;161856;-18
2022/05/09 11:45:07;;;;;;;19.45;10.60;;;;;;;;;;7327702;19;154152;-18
2022/05/09 11:47:46;;;;;;;18.25;10.73;;;;;;;;;;7328570;19;153484;-18
2022/05/09 11:50:37;;;;;;;20.52;11.32;;;;;;;;;;7329235;19;161754;-18
2022/05/09 11:53:10;;;;;;;20.73;11.15;;;;;;;;;;7326509;19;162365;-19
2022/05/09 11:55:42;;;;;;;18.10;11.18;;;;;;;;;;7328920;19;154135;-18
2022/05/09 11:58:13;;;;;;;20.02;11.57;;;;;;;;;;7328848;19;153306;-18
2022/05/09 12:00:55;;;;;;;18.02;10.30;;;;;;;;;;7328291;19;161687;-19
2022/05/09 12:03:56;;;;;;;20.10;10.73;;;;;;;;;;7327107;19;162469;-18
2022/05/09 12:06:42;;;;;;;17.88;9.80;;;;;;;;;;7326497;19;154044;-18
2022/05/09 12:09:16;;;;;;;17.52;10.82;;;;;;;;;;7328805;19;153140;-18
2022/05/09 12:11:55;;;;;;;17.55;10.48;;;;;;;;;;7327894;19;162080;-18
2022/05/09 12:14:43;;;;;;;17.80;9.65;;;;;;;;;;7328688;19;162028;-18
2022/05/09 12:17:39;;;;;;;21.17;9.90;;;;;;;;;;7328373;19;154402;-18
2022/05/09 12:20:13;;;;;;;20.95;9.63;;;;;;;;;;7328808;19;153779;-18
2022/05/09 12:22:49;;;;;;;14.98;9.57;;;;;;;;;;7328546;19;161944;-19
2022/05/09 12:25:52;;;;;;;18.48;10.73;;;;;;;;;;7330581;19;162488;-18
2022/05/09 12:28:25;;;;;;;17.95;9.85;;;;;;;;;;7326472;19;154110;-18
2022/05/09 12:30:59;;;;;;;15.73;10.07;;;;;;;;;;7327368;19;153541;-18
2022/05/09 12:33:41;;;;;;;15.07;9.20;;;;;;;;;;7325958;19;161909;-19
2022/05/09 12:36:16;;;;;;;17.33;9.98;;;;;;;;;;7331462;19;162332;-18
2022/05/09 12:38:49;;;;;;;14.98;9.27;;;;;;;;;;7330337;19;154082;-19
2022/05/09 12:41:23;;;;;;;16.17;9.00;;;;;;;;;;7332214;19;153861;-18
2022/05/09 12:43:58;;;;;;;15.52;9.30;;;;;;;;;;7327884;19;163257;-18
2022/05/09 12:46:33;;;;;;;16.67;9.00;;;;;;;;;;7330228;19;163006;-19
2022/05/09 12:49:09;;;;;;;19.92;8.90;;;;;;;;;;7327424;19;154147;-18
2022/05/09 12:51:46;;;;;;;14.32;8.57;;;;;;;;;;7327899;19;153631;-18
2022/05/09 12:54:20;;;;;;;16.70;9.75;;;;;;;;;;7324557;19;162108;-18
2022/05/09 12:56:54;;;;;;;14.02;8.00;;;;;;;;;;7331764;19;162085;-18
2022/05/09 12:59:25;;;;;;;15.93;8.88;;;;;;;;;;7329939;19;154153;-33
2022/05/09 13:01:59;;;;;;;15.02;9.35;;;;;;;;;;7328366;19;153501;-20
2022/05/09 13:04:53;;;;;;;;;;;;;;;;;;7329900;19;162554;-20
2022/05/09 13:07:24;;;;;;;13.50;8.38;;;;;;;;;;7326340;19;162672;-19
2022/05/09 13:09:57;;;;;;;16.85;8.20;;;;;;;;;;7327796;19;154982;-19
2022/05/09 13:12:33;;;;;;;14.43;8.38;;;;;;;;;;7326304;19;153712;-19
2022/05/09 13:15:09;;;;;;;13.73;8.10;;;;;;;;;;7325770;19;161871;-19
2022/05/09 13:17:45;;;;;;;13.90;8.25;;;;;;;;;;7330806;19;163006;-19
2022/05/09 13:20:22;;;;;;;12.18;8.23;;;;;;;;;;7339005;19;154026;-19
2022/05/09 13:22:57;;;;;;;10.38;6.18;;;;;;;;;;7334830;19;153839;-20
2022/05/09 13:25:34;;;;;;;12.18;6.32;;;;;;;;;;7335917;19;161809;-17
2022/05/09 13:28:10;;;;;;;13.95;8.10;;;;;;;;;;7337605;19;162435;-17
2022/05/09 13:30:47;;;;;;;10.05;7.10;;;;;;;;;;7338621;19;153863;-18
2022/05/09 13:33:19;;;;;;;13.13;8.07;;;;;;;;;;7338157;19;153523;-19
2022/05/09 13:35:55;;;;;;;7.57;6.27;;;;;;;;;;7336210;19;162096;-19
2022/05/09 13:38:33;;;;;;;11.73;7.38;;;;;;;;;;7332747;19;162399;-18
2022/05/09 13:41:08;;;;;;;12.93;7.18;;;;;;;;;;7337166;19;154261;-19
2022/05/09 13:43:43;;;;;;;8.98;5.88;;;;;;;;;;7333997;19;153837;-20
2022/05/09 13:46:20;;;;;;;49.97;24.40;;;;;;;;;;7337236;19;161556;-19
2022/05/09 13:48:54;;;;;;;93.50;35.25;;;;;;;;;;7336502;19;162687;-19
2022/05/09 13:51:32;;;;;;;103.03;40.88;;;;;;;;;;7331366;19;154565;-19
2022/05/09 13:54:08;;;;;;;93.32;42.75;;;;;;;;;;7332493;19;153757;-20
2022/05/09 13:56:41;;;;;;;109.20;48.67;;;;;;;;;;7333338;19;161975;-19
2022/05/09 13:59:32;;;;;;;113.00;48.58;;;;;;;;;;7333567;19;162406;-20
2022/05/09 14:02:06;;;;;;;116.07;46.65;;;;;;;;;;7332708;19;154004;-20
2022/05/09 14:04:38;;;;;;;87.57;39.55;;;;;;;;;;7333264;19;154236;-19
2022/05/09 14:10:00;;;;;;;116.03;51.13;;;;;;;;;;7333082;19;162525;-19
2022/05/09 14:12:38;;;;;;;118.20;54.00;;;;;;;;;;7333309;19;154294;-19
2022/05/09 14:15:17;;;;;;;114.90;50.60;;;;;;;;;;7335338;19;153691;-18
2022/05/09 14:17:53;;;;;;;117.82;53.30;;;;;;;;;;7332908;19;161986;-23
2022/05/09 14:20:36;;;;;;;114.75;52.47;;;;;;;;;;7331712;19;162506;-18
2022/05/09 14:23:15;;;;;;;107.32;50.67;;;;;;;;;;7333133;19;154615;-18
2022/05/09 14:31:30;;;;;;;112.17;48.63;;;;;;;;;;7332244;19;162655;-19
2022/05/09 14:34:02;;;;;;;106.88;50.30;;;;;;;;;;7332034;19;154464;-18
2022/05/09 14:36:37;;;;;;;117.15;49.83;;;;;;;;;;7332925;19;153964;-18
2022/05/09 14:39:31;;;;;;;104.95;48.95;;;;;;;;;;7330577;19;161969;-19
2022/05/09 14:42:13;;;;;;;107.80;49.38;;;;;;;;;;7332103;19;162686;-18
2022/05/09 14:44:45;;;;;;;100.22;45.67;;;;;;;;;;7332335;19;154370;-18
2022/05/09 14:47:26;;;;;;;;;;;;;;;;;;7332851;19;153575;-18
2022/05/09 14:50:13;;;;;;;103.70;50.15;;;;;;;;;;7332460;19;162130;-19
2022/05/09 14:52:51;;;;;;;97.47;49.65;;;;;;;;;;7330507;19;162507;-18
2022/05/09 14:58:20;;;;;;;98.93;46.28;;;;;;;;;;7331950;19;153739;-18
2022/05/09 15:00:55;;;;;;;96.53;46.40;;;;;;;;;;7331650;19;161970;-19
2022/05/09 15:03:26;;;;;;;91.95;46.35;;;;;;;;;;7331199;19;162530;-18
2022/05/09 15:05:58;;;;;;;100.25;45.58;;;;;;;;;;7331787;19;153748;-18
2022/05/09 15:08:31;;;;;;;87.63;43.75;;;;;;;;;;7330993;19;153733;-18
2022/05/09 15:11:08;;;;;;;92.47;45.28;;;;;;;;;;7330868;19;161969;-18
2022/05/09 15:13:41;;;;;;;97.00;44.20;;;;;;;;;;7330422;19;162389;-19
2022/05/09 15:16:18;;;;;;;97.07;43.33;;;;;;;;;;7328179;19;154254;-19
2022/05/09 15:18:50;;;;;;;86.80;41.33;;;;;;;;;;7330469;19;153779;-19
2022/05/09 15:21:23;;;;;;;93.10;43.15;;;;;;;;;;7330507;19;162022;-18
2022/05/09 15:23:56;;;;;;;84.90;43.72;;;;;;;;;;7330293;19;162501;-18
2022/05/09 15:26:33;;;;;;;95.18;45.22;;;;;;;;;;7330974;19;154174;-18